בריסל, Belgium

02:01 AM CET , פברואר 26, 2017 (GMT +0100)
engelenstraat | | Change Station

Elev 138 ft 50.89 °N, 4.54 °E | Updated 26 seconds ago

בהיר
בהיר
46.8 ° F
Feels Like 44 ° F
צפ
5.6
רוח משתנה רוח from דרום
Gusts 12.1 מייל/שעה

היום
High -- | Low -- ° F
--% Chance of Precip.
אתמול
High -- | Low -- ° F
Precip. -- אינץ
לחץ 29.92 אינץ
ראות 6.2 מיילים
עננים עננים פזורים 11000 ft
מעונן 12000 ft
רוח צוננת 44 ° F
טמפ עיבוי 36 ° F
לחות 65%
גשם 0.00 אינץ
עומק השלג Not available.
7:32 AM 6:17 PM
סהרון מחסיר, 0% visible
METAR EBBE 260055Z AUTO 21015KT 9999 SCT110/// OVC120/// 07/01 Q1013 BLU
לחץ 29.92 אינץ
ראות 6.2 מיילים
עננים עננים פזורים 11000 ft
מעונן 12000 ft
רוח צוננת 44 ° F
טמפ עיבוי 36 ° F
לחות 65%
גשם 0.00 אינץ
עומק השלג Not available.
7:32 AM 6:17 PM
סהרון מחסיר, 0% visible
METAR EBBE 260055Z AUTO 21015KT 9999 SCT110/// OVC120/// 07/01 Q1013 BLU

Get Your Daily Forecast Email!

Thanks for signing up!

Be on the lookout for a verification email in your inbox.

You'll start receiving the daily forecast at 8 AM.

×

10-Day Weather Forecast

×

Almanac

אסטרונומיה

Feb. 26, 2017 Rise Set
Actual Time
Civil Twilight
Nautical Twilight
Astronomical Twilight
ירח
Length Of Visible Light
אורך היום
Tomorrow will be .
, % of the Moon is Illuminated

Today's Extremes

Country Highs Country Lows

Community

WunderPhotos

Upload Photos

1,962,540 photos uploaded!

WunderBlog® & News

Nearby

איכות האוויר

  איכות האוויר אינדקס איכות האוויר חומר מזהם
Not available.

עומק שלג

Station Depth Elevation

Earthquake Activity

עיר Distance Mag. Time & Date
Minimum magnitude displayed is 2.5.

Coastal Water Temperatures

מקום טמפרטורה

Stations

Nearby Weather Stations

Station Location טמפ רוח צוננת טמפ עיבוי לחות רוח Precip. Elev מעודכן Type